sensor_id;sensor_type;location;lat;lon;timestamp;P1;durP1;ratioP1;P2;durP2;ratioP2
23306;SDS011;11822;52.470;10.688;2022-07-29T00:01:45;4.40;;;1.20;;
23306;SDS011;11822;52.470;10.688;2022-07-29T00:04:11;7.15;;;1.38;;
23306;SDS011;11822;52.470;10.688;2022-07-29T00:06:36;6.38;;;1.38;;
23306;SDS011;11822;52.470;10.688;2022-07-29T00:09:02;5.65;;;1.50;;
23306;SDS011;11822;52.470;10.688;2022-07-29T00:11:27;9.00;;;1.58;;
23306;SDS011;11822;52.470;10.688;2022-07-29T00:13:52;6.50;;;1.50;;
23306;SDS011;11822;52.470;10.688;2022-07-29T00:16:18;6.05;;;1.40;;
23306;SDS011;11822;52.470;10.688;2022-07-29T00:18:43;4.90;;;1.33;;
23306;SDS011;11822;52.470;10.688;2022-07-29T00:21:09;5.25;;;1.63;;
23306;SDS011;11822;52.470;10.688;2022-07-29T00:23:34;4.80;;;1.42;;
23306;SDS011;11822;52.470;10.688;2022-07-29T00:26:00;8.35;;;1.27;;
23306;SDS011;11822;52.470;10.688;2022-07-29T00:28:25;4.10;;;1.30;;
23306;SDS011;11822;52.470;10.688;2022-07-29T00:30:51;3.58;;;1.35;;
23306;SDS011;11822;52.470;10.688;2022-07-29T00:33:16;4.22;;;1.40;;
23306;SDS011;11822;52.470;10.688;2022-07-29T00:35:41;5.25;;;1.30;;
23306;SDS011;11822;52.470;10.688;2022-07-29T00:38:13;8.10;;;1.50;;
23306;SDS011;11822;52.470;10.688;2022-07-29T00:40:39;5.05;;;1.35;;
23306;SDS011;11822;52.470;10.688;2022-07-29T00:43:06;4.55;;;1.40;;
23306;SDS011;11822;52.470;10.688;2022-07-29T00:45:32;5.05;;;1.48;;
23306;SDS011;11822;52.470;10.688;2022-07-29T00:47:57;8.32;;;1.50;;
23306;SDS011;11822;52.470;10.688;2022-07-29T00:50:23;6.97;;;1.45;;
23306;SDS011;11822;52.470;10.688;2022-07-29T00:52:49;5.25;;;1.50;;
23306;SDS011;11822;52.470;10.688;2022-07-29T00:55:15;5.78;;;1.60;;
23306;SDS011;11822;52.470;10.688;2022-07-29T00:57:42;6.35;;;1.27;;
23306;SDS011;11822;52.470;10.688;2022-07-29T01:00:11;3.83;;;1.50;;
23306;SDS011;11822;52.470;10.688;2022-07-29T01:02:40;2.25;;;1.50;;
23306;SDS011;11822;52.470;10.688;2022-07-29T01:05:06;5.28;;;1.63;;
23306;SDS011;11822;52.470;10.688;2022-07-29T01:07:33;5.53;;;1.77;;
23306;SDS011;11822;52.470;10.688;2022-07-29T01:10:02;3.55;;;1.42;;
23306;SDS011;11822;52.470;10.688;2022-07-29T01:12:29;3.50;;;1.48;;
23306;SDS011;11822;52.470;10.688;2022-07-29T01:14:58;3.25;;;1.35;;
23306;SDS011;11822;52.470;10.688;2022-07-29T01:20:32;6.25;;;1.75;;
23306;SDS011;11822;52.470;10.688;2022-07-29T01:31:20;4.35;;;1.80;;
23306;SDS011;11822;52.470;10.688;2022-07-29T01:33:57;3.45;;;1.55;;
23306;SDS011;11822;52.470;10.688;2022-07-29T01:36:35;4.60;;;1.80;;
23306;SDS011;11822;52.470;10.688;2022-07-29T01:39:06;5.80;;;1.90;;
23306;SDS011;11822;52.470;10.688;2022-07-29T01:41:32;4.55;;;1.70;;
23306;SDS011;11822;52.470;10.688;2022-07-29T01:44:02;9.57;;;1.70;;
23306;SDS011;11822;52.470;10.688;2022-07-29T01:46:48;4.50;;;1.60;;
23306;SDS011;11822;52.470;10.688;2022-07-29T01:51:47;6.60;;;1.52;;
23306;SDS011;11822;52.470;10.688;2022-07-29T01:54:20;8.45;;;1.70;;
23306;SDS011;11822;52.470;10.688;2022-07-29T01:56:47;7.93;;;1.92;;
23306;SDS011;11822;52.470;10.688;2022-07-29T01:59:15;2.95;;;1.48;;
23306;SDS011;11822;52.470;10.688;2022-07-29T02:11:38;5.20;;;1.80;;
23306;SDS011;11822;52.470;10.688;2022-07-29T02:14:10;5.35;;;1.77;;
23306;SDS011;11822;52.470;10.688;2022-07-29T02:16:38;7.38;;;1.75;;
23306;SDS011;11822;52.470;10.688;2022-07-29T02:19:06;5.22;;;2.03;;
23306;SDS011;11822;52.470;10.688;2022-07-29T02:21:33;6.07;;;1.77;;
23306;SDS011;11822;52.470;10.688;2022-07-29T02:24:00;3.47;;;1.50;;
23306;SDS011;11822;52.470;10.688;2022-07-29T02:26:27;7.00;;;1.77;;
23306;SDS011;11822;52.470;10.688;2022-07-29T02:28:56;3.35;;;1.80;;
23306;SDS011;11822;52.470;10.688;2022-07-29T02:31:26;7.65;;;2.13;;
23306;SDS011;11822;52.470;10.688;2022-07-29T02:33:57;10.48;;;2.00;;
23306;SDS011;11822;52.470;10.688;2022-07-29T02:36:24;9.48;;;2.00;;
23306;SDS011;11822;52.470;10.688;2022-07-29T02:38:50;7.35;;;2.10;;
23306;SDS011;11822;52.470;10.688;2022-07-29T02:43:43;4.95;;;2.00;;
23306;SDS011;11822;52.470;10.688;2022-07-29T02:46:13;6.63;;;1.80;;
23306;SDS011;11822;52.470;10.688;2022-07-29T02:51:35;5.43;;;1.85;;
23306;SDS011;11822;52.470;10.688;2022-07-29T02:54:07;6.87;;;1.83;;
23306;SDS011;11822;52.470;10.688;2022-07-29T02:56:35;5.03;;;1.90;;
23306;SDS011;11822;52.470;10.688;2022-07-29T02:59:04;9.68;;;1.80;;
23306;SDS011;11822;52.470;10.688;2022-07-29T03:01:34;3.90;;;1.88;;
23306;SDS011;11822;52.470;10.688;2022-07-29T03:04:01;5.68;;;1.80;;
23306;SDS011;11822;52.470;10.688;2022-07-29T03:06:29;5.60;;;2.20;;
23306;SDS011;11822;52.470;10.688;2022-07-29T03:08:57;3.78;;;2.00;;
23306;SDS011;11822;52.470;10.688;2022-07-29T03:11:25;5.82;;;1.83;;
23306;SDS011;11822;52.470;10.688;2022-07-29T03:13:51;4.82;;;2.03;;
23306;SDS011;11822;52.470;10.688;2022-07-29T03:16:18;4.53;;;2.25;;
23306;SDS011;11822;52.470;10.688;2022-07-29T03:18:44;6.18;;;1.90;;
23306;SDS011;11822;52.470;10.688;2022-07-29T03:21:11;5.35;;;2.10;;
23306;SDS011;11822;52.470;10.688;2022-07-29T03:23:36;7.88;;;1.98;;
23306;SDS011;11822;52.470;10.688;2022-07-29T03:26:02;7.75;;;2.20;;
23306;SDS011;11822;52.470;10.688;2022-07-29T03:28:27;8.20;;;2.30;;
23306;SDS011;11822;52.470;10.688;2022-07-29T03:30:54;7.22;;;2.00;;
23306;SDS011;11822;52.470;10.688;2022-07-29T03:33:19;4.43;;;1.90;;
23306;SDS011;11822;52.470;10.688;2022-07-29T03:35:45;8.23;;;2.28;;
23306;SDS011;11822;52.470;10.688;2022-07-29T03:38:10;4.22;;;2.10;;
23306;SDS011;11822;52.470;10.688;2022-07-29T03:43:16;10.32;;;2.17;;
23306;SDS011;11822;52.470;10.688;2022-07-29T03:45:44;5.93;;;2.25;;
23306;SDS011;11822;52.470;10.688;2022-07-29T03:48:13;7.88;;;1.98;;
23306;SDS011;11822;52.470;10.688;2022-07-29T03:50:41;5.05;;;2.10;;
23306;SDS011;11822;52.470;10.688;2022-07-29T03:53:07;4.22;;;2.13;;
23306;SDS011;11822;52.470;10.688;2022-07-29T03:55:33;10.15;;;2.60;;
23306;SDS011;11822;52.470;10.688;2022-07-29T03:58:05;4.60;;;2.10;;
23306;SDS011;11822;52.470;10.688;2022-07-29T04:00:32;7.85;;;2.15;;
23306;SDS011;11822;52.470;10.688;2022-07-29T04:02:59;8.05;;;2.47;;
23306;SDS011;11822;52.470;10.688;2022-07-29T04:05:25;9.80;;;2.47;;
23306;SDS011;11822;52.470;10.688;2022-07-29T04:07:50;7.07;;;2.35;;
23306;SDS011;11822;52.470;10.688;2022-07-29T04:10:15;8.52;;;2.40;;
23306;SDS011;11822;52.470;10.688;2022-07-29T04:12:42;4.80;;;2.20;;
23306;SDS011;11822;52.470;10.688;2022-07-29T04:15:08;7.00;;;2.45;;
23306;SDS011;11822;52.470;10.688;2022-07-29T04:17:33;9.85;;;2.50;;
23306;SDS011;11822;52.470;10.688;2022-07-29T04:19:59;10.27;;;2.28;;
23306;SDS011;11822;52.470;10.688;2022-07-29T04:22:24;10.43;;;2.45;;
23306;SDS011;11822;52.470;10.688;2022-07-29T04:24:49;8.57;;;2.15;;
23306;SDS011;11822;52.470;10.688;2022-07-29T04:27:15;10.63;;;2.92;;
23306;SDS011;11822;52.470;10.688;2022-07-29T04:29:40;4.00;;;2.25;;
23306;SDS011;11822;52.470;10.688;2022-07-29T04:32:06;8.20;;;2.53;;
23306;SDS011;11822;52.470;10.688;2022-07-29T04:34:31;9.27;;;2.58;;
23306;SDS011;11822;52.470;10.688;2022-07-29T04:36:56;11.18;;;3.05;;
23306;SDS011;11822;52.470;10.688;2022-07-29T04:39:22;7.20;;;2.80;;
23306;SDS011;11822;52.470;10.688;2022-07-29T04:41:47;4.68;;;2.53;;
23306;SDS011;11822;52.470;10.688;2022-07-29T04:44:14;6.55;;;2.63;;
23306;SDS011;11822;52.470;10.688;2022-07-29T04:46:39;5.22;;;2.50;;
23306;SDS011;11822;52.470;10.688;2022-07-29T04:49:04;4.40;;;2.60;;
23306;SDS011;11822;52.470;10.688;2022-07-29T04:51:30;6.53;;;2.30;;
23306;SDS011;11822;52.470;10.688;2022-07-29T04:53:56;6.43;;;2.53;;
23306;SDS011;11822;52.470;10.688;2022-07-29T04:56:21;6.25;;;2.50;;
23306;SDS011;11822;52.470;10.688;2022-07-29T04:58:47;8.45;;;3.22;;
23306;SDS011;11822;52.470;10.688;2022-07-29T05:01:12;6.72;;;2.67;;
23306;SDS011;11822;52.470;10.688;2022-07-29T05:03:39;4.47;;;2.67;;
23306;SDS011;11822;52.470;10.688;2022-07-29T05:06:04;5.13;;;2.45;;
23306;SDS011;11822;52.470;10.688;2022-07-29T05:08:30;6.38;;;2.78;;
23306;SDS011;11822;52.470;10.688;2022-07-29T05:10:55;4.38;;;2.70;;
23306;SDS011;11822;52.470;10.688;2022-07-29T05:13:20;6.70;;;2.80;;
23306;SDS011;11822;52.470;10.688;2022-07-29T05:15:46;13.95;;;2.65;;
23306;SDS011;11822;52.470;10.688;2022-07-29T05:18:11;8.00;;;2.45;;
23306;SDS011;11822;52.470;10.688;2022-07-29T05:20:36;7.10;;;2.90;;
23306;SDS011;11822;52.470;10.688;2022-07-29T05:23:02;6.07;;;2.67;;
23306;SDS011;11822;52.470;10.688;2022-07-29T05:25:28;6.65;;;2.70;;
23306;SDS011;11822;52.470;10.688;2022-07-29T05:27:54;8.23;;;2.85;;
23306;SDS011;11822;52.470;10.688;2022-07-29T05:30:20;12.95;;;2.70;;
23306;SDS011;11822;52.470;10.688;2022-07-29T05:32:46;9.18;;;2.97;;
23306;SDS011;11822;52.470;10.688;2022-07-29T05:35:12;7.60;;;2.92;;
23306;SDS011;11822;52.470;10.688;2022-07-29T05:37:39;7.78;;;2.75;;
23306;SDS011;11822;52.470;10.688;2022-07-29T05:40:04;9.85;;;2.88;;
23306;SDS011;11822;52.470;10.688;2022-07-29T05:42:30;9.10;;;2.90;;
23306;SDS011;11822;52.470;10.688;2022-07-29T05:44:56;7.03;;;3.00;;
23306;SDS011;11822;52.470;10.688;2022-07-29T05:47:22;7.47;;;2.53;;
23306;SDS011;11822;52.470;10.688;2022-07-29T05:49:47;8.30;;;3.15;;
23306;SDS011;11822;52.470;10.688;2022-07-29T05:52:13;4.95;;;2.83;;
23306;SDS011;11822;52.470;10.688;2022-07-29T05:54:39;10.48;;;2.90;;
23306;SDS011;11822;52.470;10.688;2022-07-29T05:57:05;9.15;;;3.30;;
23306;SDS011;11822;52.470;10.688;2022-07-29T05:59:30;8.13;;;2.60;;
23306;SDS011;11822;52.470;10.688;2022-07-29T06:01:59;6.40;;;2.80;;
23306;SDS011;11822;52.470;10.688;2022-07-29T06:04:25;6.00;;;2.78;;
23306;SDS011;11822;52.470;10.688;2022-07-29T06:06:50;5.55;;;2.83;;
23306;SDS011;11822;52.470;10.688;2022-07-29T06:09:15;10.07;;;2.92;;
23306;SDS011;11822;52.470;10.688;2022-07-29T06:11:41;6.93;;;3.00;;
23306;SDS011;11822;52.470;10.688;2022-07-29T06:14:06;6.30;;;3.08;;
23306;SDS011;11822;52.470;10.688;2022-07-29T06:16:31;7.95;;;3.08;;
23306;SDS011;11822;52.470;10.688;2022-07-29T06:18:57;10.52;;;2.90;;
23306;SDS011;11822;52.470;10.688;2022-07-29T06:21:22;7.55;;;2.90;;
23306;SDS011;11822;52.470;10.688;2022-07-29T06:23:47;8.23;;;3.00;;
23306;SDS011;11822;52.470;10.688;2022-07-29T06:26:13;5.60;;;2.80;;
23306;SDS011;11822;52.470;10.688;2022-07-29T06:28:38;10.25;;;2.70;;
23306;SDS011;11822;52.470;10.688;2022-07-29T06:31:04;11.55;;;2.97;;
23306;SDS011;11822;52.470;10.688;2022-07-29T06:33:30;6.85;;;2.83;;
23306;SDS011;11822;52.470;10.688;2022-07-29T06:35:55;10.68;;;2.90;;
23306;SDS011;11822;52.470;10.688;2022-07-29T06:38:21;8.73;;;2.90;;
23306;SDS011;11822;52.470;10.688;2022-07-29T06:40:47;13.75;;;3.28;;
23306;SDS011;11822;52.470;10.688;2022-07-29T06:43:34;14.80;;;3.05;;
23306;SDS011;11822;52.470;10.688;2022-07-29T06:46:03;10.02;;;2.70;;
23306;SDS011;11822;52.470;10.688;2022-07-29T06:48:31;11.77;;;2.63;;
23306;SDS011;11822;52.470;10.688;2022-07-29T06:50:57;6.82;;;2.90;;
23306;SDS011;11822;52.470;10.688;2022-07-29T06:53:23;9.73;;;2.88;;
23306;SDS011;11822;52.470;10.688;2022-07-29T06:55:49;8.68;;;3.00;;
23306;SDS011;11822;52.470;10.688;2022-07-29T06:58:14;6.55;;;2.78;;
23306;SDS011;11822;52.470;10.688;2022-07-29T07:00:42;8.82;;;2.60;;
23306;SDS011;11822;52.470;10.688;2022-07-29T07:03:09;4.75;;;2.72;;
23306;SDS011;11822;52.470;10.688;2022-07-29T07:05:34;6.28;;;2.40;;
23306;SDS011;11822;52.470;10.688;2022-07-29T07:08:00;14.52;;;2.75;;
23306;SDS011;11822;52.470;10.688;2022-07-29T07:10:25;9.20;;;3.20;;
23306;SDS011;11822;52.470;10.688;2022-07-29T07:12:51;8.23;;;2.35;;
23306;SDS011;11822;52.470;10.688;2022-07-29T07:15:16;5.20;;;2.40;;
23306;SDS011;11822;52.470;10.688;2022-07-29T07:17:41;9.23;;;3.10;;
23306;SDS011;11822;52.470;10.688;2022-07-29T07:20:07;8.82;;;2.95;;
23306;SDS011;11822;52.470;10.688;2022-07-29T07:22:32;5.97;;;2.92;;
23306;SDS011;11822;52.470;10.688;2022-07-29T07:24:58;8.88;;;2.45;;
23306;SDS011;11822;52.470;10.688;2022-07-29T07:27:23;9.75;;;3.08;;
23306;SDS011;11822;52.470;10.688;2022-07-29T07:29:48;7.03;;;2.58;;
23306;SDS011;11822;52.470;10.688;2022-07-29T07:32:14;9.75;;;2.80;;
23306;SDS011;11822;52.470;10.688;2022-07-29T07:34:41;4.32;;;2.33;;
23306;SDS011;11822;52.470;10.688;2022-07-29T07:37:07;11.73;;;3.13;;
23306;SDS011;11822;52.470;10.688;2022-07-29T07:39:33;4.95;;;2.40;;
23306;SDS011;11822;52.470;10.688;2022-07-29T07:41:58;7.85;;;2.97;;
23306;SDS011;11822;52.470;10.688;2022-07-29T07:44:24;7.65;;;2.75;;
23306;SDS011;11822;52.470;10.688;2022-07-29T07:46:49;8.02;;;2.55;;
23306;SDS011;11822;52.470;10.688;2022-07-29T07:49:14;5.22;;;2.60;;
23306;SDS011;11822;52.470;10.688;2022-07-29T07:51:40;4.95;;;2.70;;
23306;SDS011;11822;52.470;10.688;2022-07-29T07:54:05;7.68;;;2.85;;
23306;SDS011;11822;52.470;10.688;2022-07-29T07:56:30;7.22;;;2.63;;
23306;SDS011;11822;52.470;10.688;2022-07-29T07:58:56;5.82;;;2.60;;
23306;SDS011;11822;52.470;10.688;2022-07-29T08:01:21;5.68;;;2.53;;
23306;SDS011;11822;52.470;10.688;2022-07-29T08:03:48;6.78;;;2.72;;
23306;SDS011;11822;52.470;10.688;2022-07-29T08:06:14;7.93;;;3.10;;
23306;SDS011;11822;52.470;10.688;2022-07-29T08:08:40;6.50;;;2.60;;
23306;SDS011;11822;52.470;10.688;2022-07-29T08:11:05;7.47;;;2.88;;
23306;SDS011;11822;52.470;10.688;2022-07-29T08:13:31;8.10;;;2.42;;
23306;SDS011;11822;52.470;10.688;2022-07-29T08:15:57;8.05;;;2.78;;
23306;SDS011;11822;52.470;10.688;2022-07-29T08:18:28;6.68;;;2.90;;
23306;SDS011;11822;52.470;10.688;2022-07-29T08:20:54;7.40;;;3.00;;
23306;SDS011;11822;52.470;10.688;2022-07-29T08:23:20;6.68;;;2.50;;
23306;SDS011;11822;52.470;10.688;2022-07-29T08:25:47;5.47;;;2.67;;
23306;SDS011;11822;52.470;10.688;2022-07-29T08:28:13;4.75;;;2.33;;
23306;SDS011;11822;52.470;10.688;2022-07-29T08:30:39;6.57;;;2.92;;
23306;SDS011;11822;52.470;10.688;2022-07-29T08:33:05;8.75;;;2.47;;
23306;SDS011;11822;52.470;10.688;2022-07-29T08:35:30;6.57;;;2.53;;
23306;SDS011;11822;52.470;10.688;2022-07-29T08:37:56;4.68;;;2.40;;
23306;SDS011;11822;52.470;10.688;2022-07-29T08:40:21;8.23;;;2.55;;
23306;SDS011;11822;52.470;10.688;2022-07-29T08:42:48;6.40;;;2.35;;
23306;SDS011;11822;52.470;10.688;2022-07-29T08:45:14;8.60;;;2.78;;
23306;SDS011;11822;52.470;10.688;2022-07-29T08:47:40;6.97;;;2.60;;
23306;SDS011;11822;52.470;10.688;2022-07-29T08:50:09;11.07;;;2.50;;
23306;SDS011;11822;52.470;10.688;2022-07-29T08:52:36;8.88;;;2.60;;
23306;SDS011;11822;52.470;10.688;2022-07-29T08:55:04;11.45;;;2.47;;
23306;SDS011;11822;52.470;10.688;2022-07-29T08:57:30;6.78;;;2.55;;
23306;SDS011;11822;52.470;10.688;2022-07-29T08:59:58;9.82;;;2.67;;
23306;SDS011;11822;52.470;10.688;2022-07-29T09:02:25;12.30;;;2.90;;
23306;SDS011;11822;52.470;10.688;2022-07-29T09:04:54;4.28;;;2.30;;
23306;SDS011;11822;52.470;10.688;2022-07-29T09:07:21;5.25;;;2.53;;
23306;SDS011;11822;52.470;10.688;2022-07-29T09:09:46;4.88;;;2.40;;
23306;SDS011;11822;52.470;10.688;2022-07-29T09:12:12;8.52;;;2.35;;
23306;SDS011;11822;52.470;10.688;2022-07-29T09:14:38;7.68;;;2.80;;
23306;SDS011;11822;52.470;10.688;2022-07-29T09:17:04;8.65;;;2.30;;
23306;SDS011;11822;52.470;10.688;2022-07-29T09:19:30;6.15;;;2.50;;
23306;SDS011;11822;52.470;10.688;2022-07-29T09:22:00;6.55;;;2.50;;
23306;SDS011;11822;52.470;10.688;2022-07-29T09:26:59;7.13;;;2.50;;
23306;SDS011;11822;52.470;10.688;2022-07-29T09:29:24;6.68;;;2.40;;
23306;SDS011;11822;52.470;10.688;2022-07-29T09:31:52;8.25;;;2.30;;
23306;SDS011;11822;52.470;10.688;2022-07-29T09:34:22;5.45;;;2.22;;
23306;SDS011;11822;52.470;10.688;2022-07-29T09:36:48;6.65;;;2.40;;
23306;SDS011;11822;52.470;10.688;2022-07-29T09:39:15;7.57;;;2.60;;
23306;SDS011;11822;52.470;10.688;2022-07-29T09:41:53;9.95;;;2.97;;
23306;SDS011;11822;52.470;10.688;2022-07-29T09:44:20;10.27;;;2.08;;
23306;SDS011;11822;52.470;10.688;2022-07-29T09:46:56;6.13;;;2.35;;
23306;SDS011;11822;52.470;10.688;2022-07-29T09:49:32;6.68;;;2.40;;
23306;SDS011;11822;52.470;10.688;2022-07-29T09:52:08;8.98;;;2.30;;
23306;SDS011;11822;52.470;10.688;2022-07-29T09:54:36;11.05;;;2.45;;
23306;SDS011;11822;52.470;10.688;2022-07-29T09:57:05;6.05;;;2.30;;
23306;SDS011;11822;52.470;10.688;2022-07-29T09:59:32;7.57;;;2.10;;
23306;SDS011;11822;52.470;10.688;2022-07-29T10:01:58;11.38;;;2.40;;
23306;SDS011;11822;52.470;10.688;2022-07-29T10:04:36;11.25;;;2.97;;
23306;SDS011;11822;52.470;10.688;2022-07-29T10:07:07;7.50;;;2.35;;
23306;SDS011;11822;52.470;10.688;2022-07-29T10:09:34;6.22;;;2.47;;
23306;SDS011;11822;52.470;10.688;2022-07-29T10:14:33;7.50;;;2.60;;
23306;SDS011;11822;52.470;10.688;2022-07-29T10:16:59;11.32;;;2.05;;
23306;SDS011;11822;52.470;10.688;2022-07-29T10:19:26;12.07;;;2.50;;
23306;SDS011;11822;52.470;10.688;2022-07-29T10:21:57;8.52;;;2.45;;
23306;SDS011;11822;52.470;10.688;2022-07-29T10:24:24;6.47;;;2.35;;
23306;SDS011;11822;52.470;10.688;2022-07-29T10:26:51;11.50;;;2.00;;
23306;SDS011;11822;52.470;10.688;2022-07-29T10:29:19;8.52;;;2.58;;
23306;SDS011;11822;52.470;10.688;2022-07-29T10:37:28;10.38;;;2.67;;
23306;SDS011;11822;52.470;10.688;2022-07-29T10:40:02;8.18;;;2.38;;
23306;SDS011;11822;52.470;10.688;2022-07-29T10:42:50;9.30;;;2.45;;
23306;SDS011;11822;52.470;10.688;2022-07-29T10:45:18;9.13;;;2.20;;
23306;SDS011;11822;52.470;10.688;2022-07-29T10:47:43;9.55;;;2.30;;
23306;SDS011;11822;52.470;10.688;2022-07-29T10:50:10;8.57;;;2.30;;
23306;SDS011;11822;52.470;10.688;2022-07-29T10:55:30;7.35;;;2.00;;
23306;SDS011;11822;52.470;10.688;2022-07-29T10:58:18;7.55;;;2.00;;
23306;SDS011;11822;52.470;10.688;2022-07-29T11:00:43;9.18;;;2.15;;
23306;SDS011;11822;52.470;10.688;2022-07-29T11:03:10;9.13;;;2.10;;
23306;SDS011;11822;52.470;10.688;2022-07-29T11:06:12;12.95;;;2.20;;
23306;SDS011;11822;52.470;10.688;2022-07-29T11:08:38;9.50;;;2.30;;
23306;SDS011;11822;52.470;10.688;2022-07-29T11:14:05;5.68;;;2.22;;
23306;SDS011;11822;52.470;10.688;2022-07-29T11:19:34;10.70;;;2.25;;
23306;SDS011;11822;52.470;10.688;2022-07-29T11:21:59;10.48;;;2.30;;
23306;SDS011;11822;52.470;10.688;2022-07-29T11:24:26;6.60;;;2.10;;
23306;SDS011;11822;52.470;10.688;2022-07-29T11:27:27;6.45;;;1.70;;
23306;SDS011;11822;52.470;10.688;2022-07-29T11:29:54;4.88;;;2.20;;
23306;SDS011;11822;52.470;10.688;2022-07-29T11:32:22;7.82;;;1.88;;
23306;SDS011;11822;52.470;10.688;2022-07-29T11:34:49;7.57;;;2.30;;
23306;SDS011;11822;52.470;10.688;2022-07-29T11:37:34;7.28;;;1.80;;
23306;SDS011;11822;52.470;10.688;2022-07-29T11:47:53;5.97;;;2.08;;
23306;SDS011;11822;52.470;10.688;2022-07-29T11:50:29;3.20;;;1.67;;
23306;SDS011;11822;52.470;10.688;2022-07-29T11:52:59;6.80;;;2.05;;
23306;SDS011;11822;52.470;10.688;2022-07-29T11:55:26;7.60;;;2.13;;
23306;SDS011;11822;52.470;10.688;2022-07-29T11:57:56;4.00;;;2.10;;
23306;SDS011;11822;52.470;10.688;2022-07-29T12:03:22;10.25;;;2.25;;
23306;SDS011;11822;52.470;10.688;2022-07-29T12:05:49;7.15;;;2.42;;
23306;SDS011;11822;52.470;10.688;2022-07-29T12:08:17;4.30;;;2.42;;
23306;SDS011;11822;52.470;10.688;2022-07-29T12:10:45;8.15;;;2.20;;
23306;SDS011;11822;52.470;10.688;2022-07-29T12:13:12;5.95;;;2.30;;
23306;SDS011;11822;52.470;10.688;2022-07-29T12:15:38;8.52;;;2.28;;
23306;SDS011;11822;52.470;10.688;2022-07-29T12:18:11;7.80;;;2.40;;
23306;SDS011;11822;52.470;10.688;2022-07-29T12:20:38;6.45;;;2.28;;
23306;SDS011;11822;52.470;10.688;2022-07-29T12:23:07;7.57;;;2.22;;
23306;SDS011;11822;52.470;10.688;2022-07-29T12:25:34;2.67;;;1.92;;
23306;SDS011;11822;52.470;10.688;2022-07-29T12:28:01;4.03;;;2.17;;
23306;SDS011;11822;52.470;10.688;2022-07-29T12:30:35;7.15;;;2.08;;
23306;SDS011;11822;52.470;10.688;2022-07-29T12:33:27;7.55;;;2.00;;
23306;SDS011;11822;52.470;10.688;2022-07-29T12:35:54;6.68;;;2.35;;
23306;SDS011;11822;52.470;10.688;2022-07-29T12:38:25;4.63;;;1.85;;
23306;SDS011;11822;52.470;10.688;2022-07-29T12:40:51;6.57;;;2.08;;
23306;SDS011;11822;52.470;10.688;2022-07-29T12:43:18;10.60;;;2.33;;
23306;SDS011;11822;52.470;10.688;2022-07-29T12:45:51;5.07;;;2.03;;
23306;SDS011;11822;52.470;10.688;2022-07-29T12:48:32;4.70;;;2.10;;
23306;SDS011;11822;52.470;10.688;2022-07-29T12:51:01;3.20;;;1.83;;
23306;SDS011;11822;52.470;10.688;2022-07-29T12:53:28;6.05;;;2.30;;
23306;SDS011;11822;52.470;10.688;2022-07-29T12:55:54;6.68;;;2.03;;
23306;SDS011;11822;52.470;10.688;2022-07-29T13:01:35;5.10;;;1.80;;
23306;SDS011;11822;52.470;10.688;2022-07-29T13:03:53;8.65;;;2.17;;
23306;SDS011;11822;52.470;10.688;2022-07-29T13:09:10;3.35;;;1.77;;
23306;SDS011;11822;52.470;10.688;2022-07-29T13:11:39;5.05;;;1.95;;
23306;SDS011;11822;52.470;10.688;2022-07-29T13:14:10;5.18;;;1.80;;
23306;SDS011;11822;52.470;10.688;2022-07-29T13:17:04;5.93;;;1.80;;
23306;SDS011;11822;52.470;10.688;2022-07-29T13:19:33;5.60;;;2.00;;
23306;SDS011;11822;52.470;10.688;2022-07-29T13:22:00;4.15;;;1.63;;
23306;SDS011;11822;52.470;10.688;2022-07-29T13:24:26;6.20;;;1.90;;
23306;SDS011;11822;52.470;10.688;2022-07-29T13:26:51;4.25;;;1.83;;
23306;SDS011;11822;52.470;10.688;2022-07-29T13:29:16;3.90;;;1.50;;
23306;SDS011;11822;52.470;10.688;2022-07-29T13:31:42;5.40;;;2.15;;
23306;SDS011;11822;52.470;10.688;2022-07-29T13:34:07;4.35;;;1.80;;
23306;SDS011;11822;52.470;10.688;2022-07-29T13:36:33;3.67;;;2.00;;
23306;SDS011;11822;52.470;10.688;2022-07-29T13:38:58;7.30;;;1.70;;
23306;SDS011;11822;52.470;10.688;2022-07-29T13:41:26;6.28;;;1.92;;
23306;SDS011;11822;52.470;10.688;2022-07-29T13:43:51;6.45;;;1.75;;
23306;SDS011;11822;52.470;10.688;2022-07-29T13:46:16;5.45;;;1.60;;
23306;SDS011;11822;52.470;10.688;2022-07-29T13:48:42;5.97;;;2.00;;
23306;SDS011;11822;52.470;10.688;2022-07-29T13:51:07;4.03;;;1.88;;
23306;SDS011;11822;52.470;10.688;2022-07-29T13:53:32;5.72;;;1.73;;
23306;SDS011;11822;52.470;10.688;2022-07-29T13:55:58;6.63;;;1.58;;
23306;SDS011;11822;52.470;10.688;2022-07-29T13:58:23;4.35;;;1.77;;
23306;SDS011;11822;52.470;10.688;2022-07-29T14:00:49;9.07;;;2.00;;
23306;SDS011;11822;52.470;10.688;2022-07-29T14:03:14;7.82;;;1.80;;
23306;SDS011;11822;52.470;10.688;2022-07-29T14:05:40;5.35;;;1.85;;
23306;SDS011;11822;52.470;10.688;2022-07-29T14:08:05;6.25;;;1.65;;
23306;SDS011;11822;52.470;10.688;2022-07-29T14:10:30;5.82;;;1.88;;
23306;SDS011;11822;52.470;10.688;2022-07-29T14:12:56;8.20;;;2.20;;
23306;SDS011;11822;52.470;10.688;2022-07-29T14:15:21;4.65;;;2.08;;
23306;SDS011;11822;52.470;10.688;2022-07-29T14:17:46;5.55;;;1.67;;
23306;SDS011;11822;52.470;10.688;2022-07-29T14:20:12;4.90;;;1.77;;
23306;SDS011;11822;52.470;10.688;2022-07-29T14:22:37;4.97;;;1.88;;
23306;SDS011;11822;52.470;10.688;2022-07-29T14:25:02;6.57;;;1.77;;
23306;SDS011;11822;52.470;10.688;2022-07-29T14:27:28;6.50;;;1.77;;
23306;SDS011;11822;52.470;10.688;2022-07-29T14:29:53;4.15;;;1.70;;
23306;SDS011;11822;52.470;10.688;2022-07-29T14:32:19;4.57;;;1.92;;
23306;SDS011;11822;52.470;10.688;2022-07-29T14:34:44;5.88;;;1.92;;
23306;SDS011;11822;52.470;10.688;2022-07-29T14:37:09;6.18;;;1.85;;
23306;SDS011;11822;52.470;10.688;2022-07-29T14:39:35;4.97;;;1.80;;
23306;SDS011;11822;52.470;10.688;2022-07-29T14:42:01;4.63;;;1.90;;
23306;SDS011;11822;52.470;10.688;2022-07-29T14:44:26;6.32;;;1.95;;
23306;SDS011;11822;52.470;10.688;2022-07-29T14:46:56;5.93;;;1.92;;
23306;SDS011;11822;52.470;10.688;2022-07-29T14:49:22;5.40;;;1.92;;
23306;SDS011;11822;52.470;10.688;2022-07-29T14:51:48;6.65;;;1.77;;
23306;SDS011;11822;52.470;10.688;2022-07-29T14:54:13;3.83;;;1.75;;
23306;SDS011;11822;52.470;10.688;2022-07-29T14:56:39;6.07;;;1.88;;
23306;SDS011;11822;52.470;10.688;2022-07-29T14:59:04;5.25;;;1.63;;
23306;SDS011;11822;52.470;10.688;2022-07-29T15:01:30;11.15;;;2.17;;
23306;SDS011;11822;52.470;10.688;2022-07-29T15:03:56;4.45;;;1.90;;
23306;SDS011;11822;52.470;10.688;2022-07-29T15:06:21;6.78;;;2.00;;
23306;SDS011;11822;52.470;10.688;2022-07-29T15:08:47;3.10;;;2.20;;
23306;SDS011;11822;52.470;10.688;2022-07-29T15:11:12;9.63;;;1.92;;
23306;SDS011;11822;52.470;10.688;2022-07-29T15:13:38;10.40;;;2.45;;
23306;SDS011;11822;52.470;10.688;2022-07-29T15:16:04;5.57;;;2.10;;
23306;SDS011;11822;52.470;10.688;2022-07-29T15:18:30;6.43;;;2.17;;
23306;SDS011;11822;52.470;10.688;2022-07-29T15:20:55;9.73;;;2.10;;
23306;SDS011;11822;52.470;10.688;2022-07-29T15:23:20;4.78;;;2.63;;
23306;SDS011;11822;52.470;10.688;2022-07-29T15:25:46;8.65;;;2.20;;
23306;SDS011;11822;52.470;10.688;2022-07-29T15:28:11;2.92;;;1.77;;
23306;SDS011;11822;52.470;10.688;2022-07-29T15:30:37;3.25;;;1.90;;
23306;SDS011;11822;52.470;10.688;2022-07-29T15:33:05;5.97;;;1.85;;
23306;SDS011;11822;52.470;10.688;2022-07-29T15:35:32;4.15;;;1.65;;
23306;SDS011;11822;52.470;10.688;2022-07-29T15:37:58;7.28;;;2.10;;
23306;SDS011;11822;52.470;10.688;2022-07-29T15:40:24;7.40;;;2.00;;
23306;SDS011;11822;52.470;10.688;2022-07-29T15:42:49;5.07;;;1.90;;